Time;durP1;ratioP1;P1;durP2;ratioP2;P2;SDS_P1;SDS_P2;PMS_P1;PMS_P2;Temp;Humidity;BMP_temperature;BMP_pressure;BME280_temperature;BME280_humidity;BME280_pressure;Samples;Min_cycle;Max_cycle;Signal;HPM_P1;HPM_P2
2021/08/12 00:00:40;;;;;;;10.32;4.50;;;;;;;;;;4458164;32;20303;-56
2021/08/12 00:03:05;;;;;;;5.95;3.87;;;;;;;;;;4458190;32;20347;-56
2021/08/12 00:05:30;;;;;;;4.45;3.37;;;;;;;;;;4465248;32;20290;-58
2021/08/12 00:07:56;;;;;;;6.55;4.43;;;;;;;;;;4453669;32;20299;-57
2021/08/12 00:10:21;;;;;;;8.10;5.40;;;;;;;;;;4458309;32;20283;-56
2021/08/12 00:12:47;;;;;;;6.25;4.30;;;;;;;;;;4456043;32;20660;-57
2021/08/12 00:15:13;;;;;;;5.85;4.12;;;;;;;;;;4466805;32;20621;-56
2021/08/12 00:17:38;;;;;;;6.53;4.28;;;;;;;;;;4458026;32;20311;-56
2021/08/12 00:20:04;;;;;;;4.93;3.67;;;;;;;;;;4462712;32;20260;-55
2021/08/12 00:22:30;;;;;;;4.85;4.05;;;;;;;;;;4454613;32;20525;-55
2021/08/12 00:24:55;;;;;;;5.28;4.25;;;;;;;;;;4452241;32;20216;-56
2021/08/12 00:27:21;;;;;;;7.18;4.57;;;;;;;;;;4451909;32;20264;-56
2021/08/12 00:29:47;;;;;;;4.95;4.40;;;;;;;;;;4459653;32;20239;-56
2021/08/12 00:32:12;;;;;;;9.30;4.93;;;;;;;;;;4450933;32;20362;-57
2021/08/12 00:34:38;;;;;;;4.53;3.55;;;;;;;;;;4464472;32;20704;-56
2021/08/12 00:37:04;;;;;;;5.15;3.87;;;;;;;;;;4459104;32;20612;-57
2021/08/12 00:39:30;;;;;;;6.78;4.03;;;;;;;;;;4457714;32;20277;-56
2021/08/12 00:41:56;;;;;;;6.55;4.62;;;;;;;;;;4460869;32;20291;-56
2021/08/12 00:44:21;;;;;;;5.93;4.43;;;;;;;;;;4464572;32;20228;-56
2021/08/12 00:46:47;;;;;;;6.07;3.87;;;;;;;;;;4459582;32;20288;-57
2021/08/12 00:49:12;;;;;;;6.15;3.90;;;;;;;;;;4457810;32;20280;-58
2021/08/12 00:51:39;;;;;;;5.43;3.50;;;;;;;;;;4455372;32;20379;-57
2021/08/12 00:54:04;;;;;;;8.25;4.20;;;;;;;;;;4461432;32;20220;-57
2021/08/12 00:56:30;;;;;;;7.03;4.07;;;;;;;;;;4461978;32;20294;-57
2021/08/12 00:58:56;;;;;;;6.95;3.92;;;;;;;;;;4453908;32;20633;-55
2021/08/12 01:01:21;;;;;;;8.52;4.25;;;;;;;;;;4464496;32;20307;-55
2021/08/12 01:03:47;;;;;;;14.15;4.85;;;;;;;;;;4454062;32;20729;-55
2021/08/12 01:06:17;;;;;;;8.02;4.82;;;;;;;;;;4462147;32;20282;-55
2021/08/12 01:08:52;;;;;;;5.62;4.45;;;;;;;;;;4460853;32;20256;-55
2021/08/12 01:11:36;;;;;;;4.15;3.70;;;;;;;;;;4462677;32;20220;-55
2021/08/12 01:14:04;;;;;;;6.28;4.47;;;;;;;;;;4454141;32;20702;-55
2021/08/12 01:16:32;;;;;;;6.20;4.28;;;;;;;;;;4464731;32;20311;-55
2021/08/12 01:19:05;;;;;;;7.70;4.35;;;;;;;;;;4458976;32;20756;-55
2021/08/12 01:21:36;;;;;;;9.85;4.87;;;;;;;;;;4455182;32;20381;-55
2021/08/12 01:24:06;;;;;;;6.20;4.90;;;;;;;;;;4460925;32;20231;-55
2021/08/12 01:26:34;;;;;;;6.32;4.40;;;;;;;;;;4461508;32;20273;-55
2021/08/12 01:29:06;;;;;;;8.93;4.93;;;;;;;;;;4453835;32;20224;-55
2021/08/12 01:32:02;;;;;;;6.03;4.43;;;;;;;;;;4461104;32;20199;-55
2021/08/12 01:34:49;;;;;;;6.12;4.25;;;;;;;;;;4463372;32;20254;-55
2021/08/12 01:37:16;;;;;;;9.95;4.18;;;;;;;;;;4457461;32;20257;-56
2021/08/12 01:39:42;;;;;;;6.62;4.22;;;;;;;;;;4457845;32;20251;-55
2021/08/12 01:42:11;;;;;;;8.43;5.28;;;;;;;;;;4464354;32;20219;-55
2021/08/12 01:44:38;;;;;;;5.90;4.10;;;;;;;;;;4451448;32;20633;-55
2021/08/12 01:47:05;;;;;;;10.60;5.40;;;;;;;;;;4458432;32;20239;-56
2021/08/12 01:49:31;;;;;;;5.60;3.85;;;;;;;;;;4455328;32;20283;-55
2021/08/12 01:51:57;;;;;;;6.12;4.47;;;;;;;;;;4464037;32;20294;-58
2021/08/12 01:54:24;;;;;;;5.95;4.43;;;;;;;;;;4449238;32;20216;-55
2021/08/12 01:56:51;;;;;;;8.45;5.87;;;;;;;;;;4456772;32;20224;-54
2021/08/12 01:59:18;;;;;;;7.32;5.07;;;;;;;;;;4453029;32;20255;-54
2021/08/12 02:01:47;;;;;;;10.63;4.93;;;;;;;;;;4460224;32;20212;-55
2021/08/12 02:04:14;;;;;;;7.57;4.45;;;;;;;;;;4460756;32;20704;-56
2021/08/12 02:06:40;;;;;;;8.02;4.72;;;;;;;;;;4451289;32;20255;-55
2021/08/12 02:09:06;;;;;;;9.68;4.93;;;;;;;;;;4463636;32;20259;-55
2021/08/12 02:11:35;;;;;;;5.43;4.30;;;;;;;;;;4454129;32;20271;-56
2021/08/12 02:14:00;;;;;;;7.37;4.35;;;;;;;;;;4457394;32;20240;-55
2021/08/12 02:16:27;;;;;;;9.77;4.43;;;;;;;;;;4449804;32;20310;-54
2021/08/12 02:18:52;;;;;;;6.00;4.78;;;;;;;;;;4463373;32;20722;-55
2021/08/12 02:21:30;;;;;;;8.23;5.05;;;;;;;;;;4455655;32;20267;-54
2021/08/12 02:24:05;;;;;;;5.72;4.15;;;;;;;;;;4459572;32;20676;-55
2021/08/12 02:26:44;;;;;;;6.80;4.72;;;;;;;;;;4463301;32;20663;-55
2021/08/12 02:29:13;;;;;;;6.15;4.25;;;;;;;;;;4457250;32;20200;-55
2021/08/12 02:31:43;;;;;;;5.40;4.07;;;;;;;;;;4456730;32;20735;-55
2021/08/12 02:34:09;;;;;;;9.88;5.05;;;;;;;;;;4450601;32;20351;-55
2021/08/12 02:36:36;;;;;;;8.70;5.03;;;;;;;;;;4450347;32;20287;-54
2021/08/12 02:39:01;;;;;;;8.27;5.03;;;;;;;;;;4463424;32;20281;-54
2021/08/12 02:41:27;;;;;;;11.48;4.82;;;;;;;;;;4462683;32;20329;-57
2021/08/12 02:43:54;;;;;;;8.35;4.70;;;;;;;;;;4452176;32;20273;-55
2021/08/12 02:46:24;;;;;;;6.87;5.22;;;;;;;;;;4460406;32;20514;-55
2021/08/12 02:48:51;;;;;;;5.93;4.22;;;;;;;;;;4452180;32;20247;-55
2021/08/12 02:51:17;;;;;;;8.80;4.50;;;;;;;;;;4455509;32;20779;-55
2021/08/12 02:53:43;;;;;;;6.87;4.45;;;;;;;;;;4457247;32;20208;-55
2021/08/12 02:56:10;;;;;;;8.15;4.97;;;;;;;;;;4463084;32;20333;-55
2021/08/12 02:58:40;;;;;;;5.03;4.30;;;;;;;;;;4450322;32;20255;-56
2021/08/12 03:01:07;;;;;;;6.97;4.82;;;;;;;;;;4454759;32;20255;-55
2021/08/12 03:03:36;;;;;;;8.70;5.35;;;;;;;;;;4453937;32;20928;-56
2021/08/12 03:06:01;;;;;;;9.35;5.75;;;;;;;;;;4446265;32;20232;-55
2021/08/12 03:08:29;;;;;;;8.55;5.80;;;;;;;;;;4449439;32;20259;-54
2021/08/12 03:10:56;;;;;;;9.95;4.72;;;;;;;;;;4456801;32;20208;-54
2021/08/12 03:13:22;;;;;;;7.03;5.00;;;;;;;;;;4462627;32;20223;-53
2021/08/12 03:15:48;;;;;;;8.95;5.80;;;;;;;;;;4462338;32;20365;-55
2021/08/12 03:18:14;;;;;;;6.28;4.97;;;;;;;;;;4462356;32;20464;-55
2021/08/12 03:20:41;;;;;;;6.87;5.28;;;;;;;;;;4456482;32;20234;-55
2021/08/12 03:23:06;;;;;;;8.63;6.03;;;;;;;;;;4462502;32;20196;-55
2021/08/12 03:25:32;;;;;;;9.43;5.75;;;;;;;;;;4462408;32;20707;-55
2021/08/12 03:27:59;;;;;;;12.13;6.00;;;;;;;;;;4451348;32;20291;-55
2021/08/12 03:30:25;;;;;;;7.07;5.10;;;;;;;;;;4461779;32;20262;-55
2021/08/12 03:32:51;;;;;;;6.35;4.43;;;;;;;;;;4455424;32;20714;-55
2021/08/12 03:35:16;;;;;;;6.90;4.28;;;;;;;;;;4454199;32;20303;-56
2021/08/12 03:37:42;;;;;;;7.68;5.78;;;;;;;;;;4457107;32;20294;-55
2021/08/12 03:40:08;;;;;;;5.82;4.82;;;;;;;;;;4455892;32;20339;-55
2021/08/12 03:42:34;;;;;;;7.20;4.50;;;;;;;;;;4459839;32;20249;-55
2021/08/12 03:44:59;;;;;;;9.60;5.85;;;;;;;;;;4452575;32;20316;-55
2021/08/12 03:47:25;;;;;;;10.07;6.35;;;;;;;;;;4454535;32;20827;-55
2021/08/12 03:49:50;;;;;;;12.95;4.70;;;;;;;;;;4458073;32;20279;-55
2021/08/12 03:52:16;;;;;;;17.77;5.15;;;;;;;;;;4462183;32;20313;-55
2021/08/12 03:54:41;;;;;;;11.43;5.50;;;;;;;;;;4449066;32;20698;-54
2021/08/12 03:57:07;;;;;;;8.77;5.05;;;;;;;;;;4463052;32;20309;-54
2021/08/12 03:59:33;;;;;;;9.23;5.35;;;;;;;;;;4455771;32;20393;-55
2021/08/12 04:01:59;;;;;;;8.48;6.10;;;;;;;;;;4450992;32;20283;-55
2021/08/12 04:04:25;;;;;;;9.45;5.28;;;;;;;;;;4449052;32;20224;-55
2021/08/12 04:06:51;;;;;;;9.10;5.68;;;;;;;;;;4454910;32;20666;-56
2021/08/12 04:09:16;;;;;;;8.90;5.70;;;;;;;;;;4465304;32;20266;-55
2021/08/12 04:11:42;;;;;;;5.80;5.03;;;;;;;;;;4465489;32;20329;-55
2021/08/12 04:14:07;;;;;;;15.25;5.72;;;;;;;;;;4452028;32;20306;-55
2021/08/12 04:16:34;;;;;;;8.07;5.47;;;;;;;;;;4464871;32;20280;-56
2021/08/12 04:19:00;;;;;;;10.82;6.28;;;;;;;;;;4459531;32;20216;-55
2021/08/12 04:21:25;;;;;;;10.75;5.32;;;;;;;;;;4456091;32;20269;-55
2021/08/12 04:23:51;;;;;;;11.43;5.03;;;;;;;;;;4460656;32;20250;-54
2021/08/12 04:26:16;;;;;;;9.70;5.25;;;;;;;;;;4464249;32;20290;-54
2021/08/12 04:28:42;;;;;;;14.80;5.53;;;;;;;;;;4453200;32;20325;-54
2021/08/12 04:31:07;;;;;;;8.38;5.18;;;;;;;;;;4464405;32;20378;-55
2021/08/12 04:33:33;;;;;;;7.85;4.80;;;;;;;;;;4458124;32;20232;-56
2021/08/12 04:35:58;;;;;;;5.95;5.10;;;;;;;;;;4464500;32;20309;-55
2021/08/12 04:38:27;;;;;;;8.55;5.55;;;;;;;;;;4452368;32;20212;-56
2021/08/12 04:40:53;;;;;;;10.48;5.82;;;;;;;;;;4458384;32;20220;-55
2021/08/12 04:43:20;;;;;;;15.90;6.18;;;;;;;;;;4457023;32;20540;-54
2021/08/12 04:45:45;;;;;;;6.45;5.35;;;;;;;;;;4461514;32;20235;-56
2021/08/12 04:48:12;;;;;;;14.85;5.25;;;;;;;;;;4461031;32;20224;-55
2021/08/12 04:50:38;;;;;;;8.38;5.53;;;;;;;;;;4458292;32;20338;-56
2021/08/12 04:53:04;;;;;;;9.43;4.68;;;;;;;;;;4459063;32;20305;-55
2021/08/12 04:55:30;;;;;;;9.60;5.95;;;;;;;;;;4456110;32;20374;-55
2021/08/12 04:57:55;;;;;;;7.93;5.28;;;;;;;;;;4453652;32;20279;-55
2021/08/12 05:00:21;;;;;;;11.20;5.03;;;;;;;;;;4458483;32;20633;-57
2021/08/12 05:02:46;;;;;;;8.48;4.62;;;;;;;;;;4453043;32;20311;-57
2021/08/12 05:05:12;;;;;;;6.85;4.50;;;;;;;;;;4464205;32;20271;-55
2021/08/12 05:07:38;;;;;;;9.15;5.45;;;;;;;;;;4464694;32;20802;-57
2021/08/12 05:10:05;;;;;;;6.10;4.53;;;;;;;;;;4455275;32;20252;-56
2021/08/12 05:12:30;;;;;;;7.35;5.40;;;;;;;;;;4462018;32;20303;-55
2021/08/12 05:14:58;;;;;;;7.55;4.97;;;;;;;;;;4455744;32;20541;-54
2021/08/12 05:17:24;;;;;;;10.90;5.15;;;;;;;;;;4464562;32;20230;-55
2021/08/12 05:19:50;;;;;;;11.00;6.22;;;;;;;;;;4452363;32;20244;-55
2021/08/12 05:22:18;;;;;;;10.00;4.78;;;;;;;;;;4462280;32;20372;-55
2021/08/12 05:24:44;;;;;;;10.05;5.53;;;;;;;;;;4452529;32;20213;-55
2021/08/12 05:27:09;;;;;;;11.35;5.65;;;;;;;;;;4464569;32;20251;-55
2021/08/12 05:29:35;;;;;;;10.10;4.93;;;;;;;;;;4453844;32;20305;-55
2021/08/12 05:32:00;;;;;;;13.43;6.93;;;;;;;;;;4455770;32;20406;-56
2021/08/12 05:34:26;;;;;;;9.52;6.18;;;;;;;;;;4450107;32;20224;-55
2021/08/12 05:36:51;;;;;;;8.52;5.10;;;;;;;;;;4464592;32;20421;-55
2021/08/12 05:39:16;;;;;;;8.77;4.90;;;;;;;;;;4457540;32;20279;-55
2021/08/12 05:41:42;;;;;;;6.50;5.10;;;;;;;;;;4454501;32;20284;-55
2021/08/12 05:44:07;;;;;;;11.90;4.78;;;;;;;;;;4460078;32;20341;-57
2021/08/12 05:46:33;;;;;;;7.22;5.75;;;;;;;;;;4456658;32;20319;-56
2021/08/12 05:48:58;;;;;;;6.00;4.78;;;;;;;;;;4459090;32;20644;-56
2021/08/12 05:51:24;;;;;;;7.03;4.95;;;;;;;;;;4453133;32;20314;-56
2021/08/12 05:53:49;;;;;;;8.32;5.55;;;;;;;;;;4452424;32;20220;-55
2021/08/12 05:56:15;;;;;;;8.18;6.12;;;;;;;;;;4453790;32;20275;-54
2021/08/12 05:58:40;;;;;;;10.48;6.07;;;;;;;;;;4459703;32;20648;-55
2021/08/12 06:01:09;;;;;;;14.13;5.62;;;;;;;;;;4454228;32;20296;-55
2021/08/12 06:03:35;;;;;;;9.48;6.22;;;;;;;;;;4457422;32;20598;-56
2021/08/12 06:06:01;;;;;;;11.77;6.20;;;;;;;;;;4463848;32;20663;-57
2021/08/12 06:08:26;;;;;;;11.75;6.18;;;;;;;;;;4461911;32;20588;-56
2021/08/12 06:10:52;;;;;;;11.07;6.00;;;;;;;;;;4451281;32;20852;-55
2021/08/12 06:13:18;;;;;;;10.45;6.07;;;;;;;;;;4452662;32;20220;-56
2021/08/12 06:15:43;;;;;;;8.70;5.20;;;;;;;;;;4457736;32;20691;-55
2021/08/12 06:18:10;;;;;;;14.50;5.87;;;;;;;;;;4462287;32;20239;-55
2021/08/12 06:20:37;;;;;;;7.80;5.68;;;;;;;;;;4459457;32;20256;-56
2021/08/12 06:23:06;;;;;;;9.65;6.15;;;;;;;;;;4455889;32;20305;-56
2021/08/12 06:25:37;;;;;;;6.70;5.12;;;;;;;;;;4456979;32;20707;-56
2021/08/12 06:28:03;;;;;;;10.02;5.37;;;;;;;;;;4462341;32;20216;-56
2021/08/12 06:30:29;;;;;;;7.75;5.57;;;;;;;;;;4450786;32;20315;-57
2021/08/12 06:32:54;;;;;;;7.62;5.12;;;;;;;;;;4454443;32;20732;-57
2021/08/12 06:35:20;;;;;;;8.32;4.87;;;;;;;;;;4455726;32;20621;-58
2021/08/12 06:37:48;;;;;;;12.73;5.80;;;;;;;;;;4450370;32;20302;-58
2021/08/12 06:40:19;;;;;;;11.48;5.95;;;;;;;;;;4456932;32;20228;-57
2021/08/12 06:42:45;;;;;;;16.02;6.07;;;;;;;;;;4448280;32;20201;-57
2021/08/12 06:45:14;;;;;;;8.95;5.70;;;;;;;;;;4448291;32;20242;-56
2021/08/12 06:47:39;;;;;;;9.85;5.70;;;;;;;;;;4452586;32;20707;-56
2021/08/12 06:50:05;;;;;;;8.23;5.32;;;;;;;;;;4450095;32;20204;-57
2021/08/12 06:52:31;;;;;;;11.45;5.37;;;;;;;;;;4457513;32;20212;-57
2021/08/12 06:54:57;;;;;;;8.20;6.15;;;;;;;;;;4454033;32;20262;-57
2021/08/12 06:57:22;;;;;;;12.93;6.15;;;;;;;;;;4446888;32;20308;-56
2021/08/12 06:59:48;;;;;;;11.18;6.47;;;;;;;;;;4453670;32;20785;-57
2021/08/12 07:02:13;;;;;;;7.07;4.97;;;;;;;;;;4462457;32;20665;-56
2021/08/12 07:04:39;;;;;;;9.02;5.47;;;;;;;;;;4458926;32;20285;-57
2021/08/12 07:07:04;;;;;;;9.15;6.12;;;;;;;;;;4453397;32;20715;-57
2021/08/12 07:09:30;;;;;;;7.28;5.20;;;;;;;;;;4459538;32;20775;-56
2021/08/12 07:11:56;;;;;;;11.82;5.43;;;;;;;;;;4456826;32;20363;-56
2021/08/12 07:14:21;;;;;;;11.12;5.45;;;;;;;;;;4453603;32;20212;-56
2021/08/12 07:16:47;;;;;;;10.20;5.20;;;;;;;;;;4456426;32;20291;-56
2021/08/12 07:19:12;;;;;;;6.47;4.82;;;;;;;;;;4451234;32;20254;-56
2021/08/12 07:21:40;;;;;;;6.45;4.47;;;;;;;;;;4451410;32;20318;-56
2021/08/12 07:24:06;;;;;;;6.90;4.65;;;;;;;;;;4459446;32;20303;-56
2021/08/12 07:26:31;;;;;;;6.55;4.80;;;;;;;;;;4446242;32;20295;-58
2021/08/12 07:28:57;;;;;;;8.02;5.00;;;;;;;;;;4452289;32;20333;-56
2021/08/12 07:31:22;;;;;;;13.98;5.05;;;;;;;;;;4461602;32;20327;-56
2021/08/12 07:33:47;;;;;;;5.78;5.05;;;;;;;;;;4452478;32;20685;-56
2021/08/12 07:36:13;;;;;;;12.07;5.22;;;;;;;;;;4462209;32;20267;-57
2021/08/12 07:38:39;;;;;;;11.63;4.50;;;;;;;;;;4461753;32;20313;-57
2021/08/12 07:41:04;;;;;;;7.03;4.40;;;;;;;;;;4459459;32;20255;-57
2021/08/12 07:43:30;;;;;;;8.93;5.43;;;;;;;;;;4456779;32;20266;-56
2021/08/12 07:45:56;;;;;;;8.15;4.75;;;;;;;;;;4455890;32;20279;-57
2021/08/12 07:48:21;;;;;;;9.88;5.25;;;;;;;;;;4460100;32;20301;-57
2021/08/12 07:50:48;;;;;;;7.22;5.05;;;;;;;;;;4461901;32;20263;-56
2021/08/12 07:53:13;;;;;;;12.60;5.45;;;;;;;;;;4451719;32;20254;-57
2021/08/12 07:55:39;;;;;;;5.45;4.43;;;;;;;;;;4463067;32;20271;-57
2021/08/12 07:58:05;;;;;;;11.18;4.18;;;;;;;;;;4461405;32;20276;-56
2021/08/12 08:00:30;;;;;;;5.22;3.97;;;;;;;;;;4457851;32;20291;-57
2021/08/12 08:02:56;;;;;;;7.10;4.40;;;;;;;;;;4462110;32;20383;-56
2021/08/12 08:05:23;;;;;;;8.02;4.97;;;;;;;;;;4463427;32;20569;-55
2021/08/12 08:07:51;;;;;;;6.10;4.87;;;;;;;;;;4453780;32;20299;-57
2021/08/12 08:10:18;;;;;;;11.57;5.00;;;;;;;;;;4458272;32;20271;-57
2021/08/12 08:12:44;;;;;;;7.28;4.30;;;;;;;;;;4457053;32;20535;-56
2021/08/12 08:15:12;;;;;;;6.18;4.20;;;;;;;;;;4461480;32;20543;-56
2021/08/12 08:17:38;;;;;;;6.95;4.95;;;;;;;;;;4464456;32;20240;-56
2021/08/12 08:20:06;;;;;;;7.25;3.90;;;;;;;;;;4462677;32;20775;-56
2021/08/12 08:22:31;;;;;;;7.87;4.07;;;;;;;;;;4456008;32;20386;-57
2021/08/12 08:24:57;;;;;;;11.48;5.00;;;;;;;;;;4458575;32;20244;-56
2021/08/12 08:27:23;;;;;;;9.18;4.85;;;;;;;;;;4455189;32;20287;-58
2021/08/12 08:29:48;;;;;;;6.57;5.07;;;;;;;;;;4457223;32;20433;-56
2021/08/12 08:32:15;;;;;;;6.82;4.00;;;;;;;;;;4461523;32;20291;-57
2021/08/12 08:34:41;;;;;;;4.65;4.03;;;;;;;;;;4460697;32;20638;-56
2021/08/12 08:37:07;;;;;;;5.30;4.20;;;;;;;;;;4455458;32;20268;-57
2021/08/12 08:39:32;;;;;;;16.73;5.57;;;;;;;;;;4464568;32;20287;-56
2021/08/12 08:41:59;;;;;;;11.12;5.32;;;;;;;;;;4452819;32;20788;-56
2021/08/12 08:44:25;;;;;;;7.18;4.87;;;;;;;;;;4459748;32;20293;-56
2021/08/12 08:46:51;;;;;;;7.68;5.10;;;;;;;;;;4464534;32;20761;-56
2021/08/12 08:49:22;;;;;;;8.90;4.85;;;;;;;;;;4464585;32;20267;-56
2021/08/12 08:51:50;;;;;;;5.95;4.57;;;;;;;;;;4457348;32;20223;-56
2021/08/12 08:54:17;;;;;;;7.25;4.35;;;;;;;;;;4461969;32;20240;-56
2021/08/12 08:56:45;;;;;;;5.95;4.70;;;;;;;;;;4448419;32;20201;-57
2021/08/12 08:59:12;;;;;;;5.35;4.15;;;;;;;;;;4453567;32;20264;-56
2021/08/12 09:01:38;;;;;;;6.70;3.85;;;;;;;;;;4457090;32;20231;-56
2021/08/12 09:04:04;;;;;;;7.00;4.03;;;;;;;;;;4451025;32;20631;-56
2021/08/12 09:06:29;;;;;;;6.43;4.30;;;;;;;;;;4464348;32;20279;-57
2021/08/12 09:08:55;;;;;;;4.40;3.78;;;;;;;;;;4459537;32;20263;-56
2021/08/12 09:11:21;;;;;;;5.60;4.25;;;;;;;;;;4456579;32;20721;-57
2021/08/12 09:13:47;;;;;;;9.90;4.12;;;;;;;;;;4452787;32;20201;-56
2021/08/12 09:16:33;;;;;;;4.93;3.65;;;;;;;;;;4466635;32;20271;-56
2021/08/12 09:19:21;;;;;;;7.43;4.50;;;;;;;;;;4452892;32;20306;-57
2021/08/12 09:21:56;;;;;;;6.72;4.40;;;;;;;;;;4459283;32;20266;-57
2021/08/12 09:24:22;;;;;;;8.98;4.00;;;;;;;;;;4464005;32;20243;-57
2021/08/12 09:26:47;;;;;;;8.25;4.40;;;;;;;;;;4464153;32;20362;-57
2021/08/12 09:29:27;;;;;;;6.25;3.67;;;;;;;;;;4455078;32;20288;-57
2021/08/12 09:32:01;;;;;;;5.18;3.85;;;;;;;;;;4459352;32;20716;-57
2021/08/12 09:34:44;;;;;;;7.10;3.90;;;;;;;;;;4455666;32;20216;-57
2021/08/12 09:37:11;;;;;;;7.37;4.12;;;;;;;;;;4448828;32;20225;-57
2021/08/12 09:39:37;;;;;;;4.60;3.92;;;;;;;;;;4460745;32;20298;-57
2021/08/12 09:42:05;;;;;;;6.78;3.90;;;;;;;;;;4456140;32;20252;-57
2021/08/12 09:44:31;;;;;;;4.57;3.78;;;;;;;;;;4460716;32;20364;-56
2021/08/12 09:46:58;;;;;;;7.85;4.10;;;;;;;;;;4453599;32;20255;-55
2021/08/12 09:49:23;;;;;;;5.25;3.80;;;;;;;;;;4455570;32;20286;-55
2021/08/12 09:51:49;;;;;;;4.12;3.35;;;;;;;;;;4446900;32;20746;-57
2021/08/12 09:54:14;;;;;;;9.13;4.68;;;;;;;;;;4461408;32;20248;-57
2021/08/12 09:56:40;;;;;;;6.25;4.45;;;;;;;;;;4463859;32;20718;-56
2021/08/12 09:59:06;;;;;;;6.72;4.72;;;;;;;;;;4463481;32;20635;-56
2021/08/12 10:01:32;;;;;;;5.60;4.22;;;;;;;;;;4455677;32;20232;-57
2021/08/12 10:03:58;;;;;;;6.20;3.58;;;;;;;;;;4451006;32;20208;-56
2021/08/12 10:06:27;;;;;;;5.87;4.20;;;;;;;;;;4462463;32;20295;-56
2021/08/12 10:08:53;;;;;;;10.25;4.72;;;;;;;;;;4457682;32;20661;-56
2021/08/12 10:11:30;;;;;;;7.53;4.03;;;;;;;;;;4459362;32;20762;-56
2021/08/12 10:13:58;;;;;;;7.10;3.85;;;;;;;;;;4456781;32;20215;-56
2021/08/12 10:16:30;;;;;;;6.60;3.72;;;;;;;;;;4459423;32;20289;-56
2021/08/12 10:18:56;;;;;;;8.32;4.12;;;;;;;;;;4453037;32;20297;-56
2021/08/12 10:21:23;;;;;;;7.65;4.32;;;;;;;;;;4457842;32;20235;-56
2021/08/12 10:23:50;;;;;;;9.57;3.75;;;;;;;;;;4459407;32;20311;-55
2021/08/12 10:26:18;;;;;;;4.53;3.35;;;;;;;;;;4453780;32;20200;-56
2021/08/12 10:28:50;;;;;;;4.28;3.53;;;;;;;;;;4457606;32;20578;-56
2021/08/12 10:31:22;;;;;;;3.72;2.95;;;;;;;;;;4457268;32;20258;-56
2021/08/12 10:33:49;;;;;;;5.95;3.10;;;;;;;;;;4455047;32;20706;-56
2021/08/12 10:36:16;;;;;;;7.25;4.35;;;;;;;;;;4454579;32;20350;-57
2021/08/12 10:38:42;;;;;;;3.80;2.83;;;;;;;;;;4454826;32;20300;-56
2021/08/12 10:41:08;;;;;;;11.15;3.62;;;;;;;;;;4456658;32;20279;-58
2021/08/12 10:43:35;;;;;;;4.43;2.97;;;;;;;;;;4451940;32;20288;-57
2021/08/12 10:46:02;;;;;;;5.05;2.75;;;;;;;;;;4457778;32;20320;-56
2021/08/12 10:48:32;;;;;;;5.45;3.70;;;;;;;;;;4451365;32;20303;-56
2021/08/12 10:51:11;;;;;;;6.25;3.37;;;;;;;;;;4453802;32;20236;-56
2021/08/12 10:53:42;;;;;;;3.78;2.37;;;;;;;;;;4461441;32;20643;-57
2021/08/12 10:56:13;;;;;;;4.00;2.78;;;;;;;;;;4454414;32;20336;-56
2021/08/12 10:58:41;;;;;;;3.85;3.30;;;;;;;;;;4459236;32;20342;-56
2021/08/12 11:01:09;;;;;;;4.35;3.20;;;;;;;;;;4461661;32;20445;-57
2021/08/12 11:03:43;;;;;;;4.70;3.05;;;;;;;;;;4456189;32;20220;-56
2021/08/12 11:06:12;;;;;;;5.70;3.65;;;;;;;;;;4461119;32;20341;-56
2021/08/12 11:09:08;;;;;;;5.75;3.47;;;;;;;;;;4452877;32;20297;-56
2021/08/12 11:11:33;;;;;;;6.12;3.10;;;;;;;;;;4460472;32;20228;-56
2021/08/12 11:13:59;;;;;;;5.28;3.42;;;;;;;;;;4458636;32;20235;-56
2021/08/12 11:16:26;;;;;;;5.03;3.33;;;;;;;;;;4461800;32;20735;-57
2021/08/12 11:18:59;;;;;;;4.90;2.95;;;;;;;;;;4461247;32;20255;-57
2021/08/12 11:21:31;;;;;;;4.80;2.95;;;;;;;;;;4453836;32;20250;-57
2021/08/12 11:24:31;;;;;;;3.40;2.70;;;;;;;;;;4455405;32;20286;-57
2021/08/12 11:26:57;;;;;;;3.22;2.90;;;;;;;;;;4456517;32;20212;-57
2021/08/12 11:29:34;;;;;;;5.12;2.72;;;;;;;;;;4453102;32;20307;-57
2021/08/12 11:32:05;;;;;;;5.32;3.10;;;;;;;;;;4453861;32;20242;-57
2021/08/12 11:34:37;;;;;;;3.95;2.80;;;;;;;;;;4455434;32;20271;-57
2021/08/12 11:37:13;;;;;;;4.32;3.08;;;;;;;;;;4451519;32;20205;-57
2021/08/12 11:40:09;;;;;;;4.05;3.10;;;;;;;;;;4460148;32;20294;-57
2021/08/12 11:42:37;;;;;;;3.50;3.08;;;;;;;;;;4454609;32;20548;-57
2021/08/12 11:45:14;;;;;;;3.00;2.55;;;;;;;;;;4456376;32;20230;-57
2021/08/12 11:47:42;;;;;;;6.05;2.97;;;;;;;;;;4460453;32;20271;-57
2021/08/12 11:50:10;;;;;;;4.30;3.00;;;;;;;;;;4454138;32;20253;-57
2021/08/12 11:52:38;;;;;;;5.20;3.37;;;;;;;;;;4451345;32;20327;-57
2021/08/12 11:55:10;;;;;;;4.12;2.75;;;;;;;;;;4448114;32;20271;-57
2021/08/12 11:57:50;;;;;;;3.08;1.95;;;;;;;;;;4452207;32;20337;-57
2021/08/12 12:00:20;;;;;;;5.07;2.75;;;;;;;;;;4458224;32;20199;-57
2021/08/12 12:02:48;;;;;;;4.70;2.95;;;;;;;;;;4456968;32;20256;-57
2021/08/12 12:05:14;;;;;;;3.58;3.08;;;;;;;;;;4455848;32;20303;-57
2021/08/12 12:07:47;;;;;;;7.43;2.78;;;;;;;;;;4457941;32;20295;-58
2021/08/12 12:10:29;;;;;;;3.70;3.33;;;;;;;;;;4456495;32;20246;-56
2021/08/12 12:13:07;;;;;;;8.85;3.03;;;;;;;;;;4459491;32;20231;-56
2021/08/12 12:15:35;;;;;;;4.10;2.60;;;;;;;;;;4457719;32;20629;-56
2021/08/12 12:18:01;;;;;;;2.72;2.45;;;;;;;;;;4458221;32;20311;-56
2021/08/12 12:20:27;;;;;;;3.37;2.75;;;;;;;;;;4456879;32;20201;-57
2021/08/12 12:23:23;;;;;;;5.10;2.70;;;;;;;;;;4458024;32;20247;-57
2021/08/12 12:25:51;;;;;;;5.95;3.20;;;;;;;;;;4452586;32;20299;-57
2021/08/12 12:28:18;;;;;;;4.68;2.85;;;;;;;;;;4461981;32;20324;-57
2021/08/12 12:30:43;;;;;;;4.95;2.90;;;;;;;;;;4457731;32;20334;-57
2021/08/12 12:33:17;;;;;;;5.03;2.87;;;;;;;;;;4457230;32;20691;-57
2021/08/12 12:35:45;;;;;;;9.80;3.17;;;;;;;;;;4456729;32;20247;-57
2021/08/12 12:38:14;;;;;;;3.95;2.95;;;;;;;;;;4461757;32;20854;-57
2021/08/12 12:40:41;;;;;;;4.55;2.75;;;;;;;;;;4453917;32;20204;-57
2021/08/12 12:43:07;;;;;;;3.60;2.58;;;;;;;;;;4455389;32;20750;-58
2021/08/12 12:45:53;;;;;;;3.60;2.70;;;;;;;;;;4462917;32;20643;-58
2021/08/12 12:48:29;;;;;;;5.15;2.65;;;;;;;;;;4457354;32;20228;-58
2021/08/12 12:50:55;;;;;;;5.32;3.10;;;;;;;;;;4459284;32;20239;-58
2021/08/12 12:53:32;;;;;;;4.32;2.92;;;;;;;;;;4459396;32;20385;-57
2021/08/12 12:55:59;;;;;;;4.78;3.33;;;;;;;;;;4456550;32;20255;-56
2021/08/12 12:58:26;;;;;;;5.30;3.00;;;;;;;;;;4459630;32;20455;-57
2021/08/12 13:01:04;;;;;;;4.10;2.87;;;;;;;;;;4453647;32;20228;-57
2021/08/12 13:03:33;;;;;;;4.20;2.90;;;;;;;;;;4458645;32;20391;-56
2021/08/12 13:06:03;;;;;;;4.22;2.67;;;;;;;;;;4459815;32;20311;-57
2021/08/12 13:08:39;;;;;;;4.65;2.87;;;;;;;;;;4462640;32;20383;-57
2021/08/12 13:11:05;;;;;;;5.40;3.30;;;;;;;;;;4463414;32;20208;-56
2021/08/12 13:13:31;;;;;;;5.57;2.60;;;;;;;;;;4462532;32;20565;-57
2021/08/12 13:15:56;;;;;;;3.15;2.70;;;;;;;;;;4463154;32;20737;-57
2021/08/12 13:18:21;;;;;;;4.15;3.22;;;;;;;;;;4453766;32;20276;-57
2021/08/12 13:20:47;;;;;;;3.75;2.80;;;;;;;;;;4453105;32;20329;-57
2021/08/12 13:23:13;;;;;;;3.65;2.53;;;;;;;;;;4453993;32;20349;-57
2021/08/12 13:25:42;;;;;;;3.53;2.37;;;;;;;;;;4461238;32;20268;-57
2021/08/12 13:28:08;;;;;;;4.47;3.35;;;;;;;;;;4458193;32;20359;-58
2021/08/12 13:30:38;;;;;;;4.10;2.72;;;;;;;;;;4458949;32;20311;-57
2021/08/12 13:33:23;;;;;;;5.37;3.30;;;;;;;;;;4456888;32;20278;-57
2021/08/12 13:35:48;;;;;;;3.83;3.25;;;;;;;;;;4446771;32;20629;-58
2021/08/12 13:38:14;;;;;;;4.12;3.15;;;;;;;;;;4460125;32;20312;-57
2021/08/12 13:40:39;;;;;;;4.82;2.90;;;;;;;;;;4455348;32;20253;-57
2021/08/12 13:43:05;;;;;;;4.20;3.53;;;;;;;;;;4455638;32;20291;-57
2021/08/12 13:45:30;;;;;;;4.15;3.22;;;;;;;;;;4452633;32;20349;-57
2021/08/12 13:47:56;;;;;;;6.55;3.83;;;;;;;;;;4461684;32;20650;-56
2021/08/12 13:50:21;;;;;;;4.03;3.28;;;;;;;;;;4462014;32;20259;-56
2021/08/12 13:52:46;;;;;;;6.22;3.40;;;;;;;;;;4452846;32;20596;-56
2021/08/12 13:55:12;;;;;;;5.18;3.03;;;;;;;;;;4459205;32;20212;-56
2021/08/12 13:57:37;;;;;;;4.10;3.47;;;;;;;;;;4462480;32;20347;-57
2021/08/12 14:00:04;;;;;;;4.22;2.28;;;;;;;;;;4452914;32;20263;-57
2021/08/12 14:02:29;;;;;;;8.63;3.75;;;;;;;;;;4447909;32;20260;-57
2021/08/12 14:04:55;;;;;;;3.92;3.53;;;;;;;;;;4456881;32;20530;-57
2021/08/12 14:07:22;;;;;;;4.18;2.72;;;;;;;;;;4446109;32;20314;-57
2021/08/12 14:09:52;;;;;;;6.25;3.15;;;;;;;;;;4459809;32;20319;-57
2021/08/12 14:12:18;;;;;;;5.22;3.12;;;;;;;;;;4455890;32;20292;-57
2021/08/12 14:14:44;;;;;;;4.85;3.17;;;;;;;;;;4455290;32;20251;-57
2021/08/12 14:17:10;;;;;;;6.25;3.05;;;;;;;;;;4450646;32;20394;-57
2021/08/12 14:19:35;;;;;;;4.50;3.33;;;;;;;;;;4460330;32;20669;-57
2021/08/12 14:22:01;;;;;;;5.30;3.22;;;;;;;;;;4458631;32;20325;-57
2021/08/12 14:24:27;;;;;;;3.35;2.62;;;;;;;;;;4462191;32;20271;-57
2021/08/12 14:26:53;;;;;;;3.35;2.87;;;;;;;;;;4452922;32;20371;-57
2021/08/12 14:29:19;;;;;;;7.07;3.40;;;;;;;;;;4451352;32;20323;-57
2021/08/12 14:31:44;;;;;;;5.05;3.17;;;;;;;;;;4457233;32;20723;-58
2021/08/12 14:34:10;;;;;;;3.47;2.67;;;;;;;;;;4461274;32;20231;-57
2021/08/12 14:36:37;;;;;;;4.45;3.60;;;;;;;;;;4453066;32;20314;-58
2021/08/12 14:39:05;;;;;;;6.85;3.92;;;;;;;;;;4452179;32;20700;-57
2021/08/12 14:41:31;;;;;;;3.45;3.00;;;;;;;;;;4459194;32;20244;-57
2021/08/12 14:43:57;;;;;;;4.10;2.97;;;;;;;;;;4460952;32;20236;-58